Time;durP1;ratioP1;P1;durP2;ratioP2;P2;SDS_P1;SDS_P2;PMS_P1;PMS_P2;Temp;Humidity;BMP_temperature;BMP_pressure;BME280_temperature;BME280_humidity;BME280_pressure;Samples;Min_cycle;Max_cycle;Signal;HPM_P1;HPM_P2
2021/12/01 08:44:33;;;;;;;2.93;1.93;;;;;;;14.47;31.05;99926.06;126524;1093;67820;-90
2021/12/01 08:50:50;;;;;;;2.63;2.20;;;;;;;14.47;31.10;99916.96;126022;1094;67862;-90
2021/12/01 08:56:43;;;;;;;2.70;2.17;;;;;;;14.45;31.19;99911.85;125948;1097;67930;-91
2021/12/01 09:02:34;;;;;;;4.50;1.80;;;;;;;14.45;31.25;99911.85;125849;1096;67869;-90
2021/12/01 09:08:22;;;;;;;5.73;2.30;;;;;;;14.44;31.23;99918.70;125893;1096;67875;-89
2021/12/01 09:14:13;;;;;;;2.33;1.90;;;;;;;14.45;31.37;99916.67;125700;1097;67867;-89
2021/12/01 09:20:19;;;;;;;2.10;1.90;;;;;;;14.45;31.24;99906.28;125866;1096;67851;-89
2021/12/01 09:26:11;;;;;;;3.80;1.97;;;;;;;14.46;31.34;99907.82;125940;1096;67881;-90
2021/12/01 09:32:01;;;;;;;2.27;2.03;;;;;;;14.47;31.47;99901.01;126656;1095;66445;-89
2021/12/01 09:37:49;;;;;;;2.77;2.07;;;;;;;14.49;31.49;99903.33;125919;1096;67871;-90
2021/12/01 09:43:45;;;;;;;2.17;1.70;;;;;;;14.52;31.50;99902.38;126761;1096;67856;-91
2021/12/01 09:49:47;;;;;;;2.67;2.10;;;;;;;14.53;31.62;99915.05;127570;1096;67740;-91
2021/12/01 09:55:36;;;;;;;2.50;2.10;;;;;;;14.55;31.56;99910.53;126108;1095;67744;-91
2021/12/01 10:01:26;;;;;;;2.17;1.90;;;;;;;14.58;31.57;99917.14;126427;1096;65832;-88
2021/12/01 10:04:35;;;;;;;2.37;1.73;;;;;;;14.60;31.75;99919.47;125871;1096;67862;-90
2021/12/01 10:07:50;;;;;;;2.60;2.00;;;;;;;14.60;31.54;99906.30;125827;1097;67960;-91
2021/12/01 10:13:59;;;;;;;2.67;2.07;;;;;;;14.61;31.68;99921.76;126386;1095;67877;-90
2021/12/01 10:19:50;;;;;;;3.10;1.83;;;;;;;14.58;31.63;99898.44;126321;1096;67861;-89
2021/12/01 10:26:09;;;;;;;2.27;2.00;;;;;;;14.58;31.60;99898.44;126606;1096;67861;-90
2021/12/01 10:29:17;;;;;;;3.47;2.17;;;;;;;14.57;31.84;99896.89;126641;1095;67826;-90
2021/12/01 10:35:10;;;;;;;4.50;2.20;;;;;;;14.56;31.81;99878.65;125576;1095;67867;-89
2021/12/01 10:41:01;;;;;;;2.70;1.93;;;;;;;14.56;31.85;99889.79;126514;1095;67781;-91
2021/12/01 10:47:03;;;;;;;2.63;1.97;;;;;;;14.55;31.88;99890.28;125544;1096;67824;-89
2021/12/01 10:52:51;;;;;;;3.27;1.80;;;;;;;14.56;32.03;99900.17;125878;1096;67878;-90
2021/12/01 10:58:51;;;;;;;2.30;1.80;;;;;;;14.55;32.23;99899.39;126580;1094;67898;-90
2021/12/01 11:04:57;;;;;;;3.63;2.00;;;;;;;14.54;32.28;99894.31;126364;1090;67771;-88
2021/12/01 11:10:50;;;;;;;2.83;2.07;;;;;;;14.53;32.16;99887.96;125664;1096;67882;-90
2021/12/01 11:16:44;;;;;;;2.60;2.00;;;;;;;14.53;32.38;99901.88;126463;1096;67857;-90
2021/12/01 11:22:41;;;;;;;2.00;1.70;;;;;;;14.53;32.36;99901.88;126524;1095;67788;-90
2021/12/01 11:28:33;;;;;;;2.43;1.87;;;;;;;14.54;32.44;99897.85;125710;1097;67772;-90
2021/12/01 11:31:44;;;;;;;2.40;1.80;;;;;;;14.54;32.55;99900.64;126469;1095;67769;-90
2021/12/01 11:37:55;;;;;;;2.57;1.80;;;;;;;14.54;32.53;99899.88;126176;1096;67907;-91
2021/12/01 11:43:41;;;;;;;3.00;1.90;;;;;;;14.55;32.56;99891.03;126100;1096;67868;-91
2021/12/01 11:49:29;;;;;;;2.48;1.88;;;;;;;14.56;32.60;99889.03;126634;1094;67843;-89
2021/12/01 11:55:17;;;;;;;3.43;1.90;;;;;;;14.56;32.58;99898.14;126247;1096;67910;-90
2021/12/01 12:01:05;;;;;;;2.40;1.90;;;;;;;14.55;32.56;99896.61;126440;1096;67766;-91
2021/12/01 12:07:02;;;;;;;2.73;2.00;;;;;;;14.55;32.69;99893.82;126549;1096;67775;-90
2021/12/01 12:13:15;;;;;;;2.80;2.10;;;;;;;14.55;32.70;99879.90;125659;1095;67888;-90
2021/12/01 12:19:11;;;;;;;2.70;1.97;;;;;;;14.55;32.70;99891.03;126419;1096;66431;-90
2021/12/01 12:25:12;;;;;;;2.80;2.00;;;;;;;14.55;32.84;99881.92;126370;1097;67841;-89
2021/12/01 12:31:00;;;;;;;2.00;1.80;;;;;;;14.54;32.83;99878.36;126649;1096;67754;-90
2021/12/01 12:37:05;;;;;;;2.33;1.73;;;;;;;14.53;32.71;99887.96;126249;1096;67866;-92
2021/12/01 12:43:36;;;;;;;2.60;1.77;;;;;;;14.54;32.72;99891.53;126304;1096;67859;-89
2021/12/01 12:49:34;;;;;;;3.57;2.10;;;;;;;14.53;32.75;99907.45;125756;1096;67910;-89
2021/12/01 12:55:34;;;;;;;2.60;1.80;;;;;;;14.52;32.75;99908.70;126219;1096;67862;-91
2021/12/01 13:01:40;;;;;;;2.97;1.80;;;;;;;14.51;32.81;99912.73;126467;1096;67859;-90
2021/12/01 13:07:43;;;;;;;2.57;1.70;;;;;;;14.50;32.79;99908.41;126784;1096;67816;-91
2021/12/01 13:13:47;;;;;;;3.80;2.07;;;;;;;14.49;32.88;99914.47;126647;1096;65742;-89
2021/12/01 13:19:38;;;;;;;3.57;1.70;;;;;;;14.50;32.84;99924.36;126660;1096;67774;-91
2021/12/01 13:22:47;;;;;;;2.47;1.80;;;;;;;14.48;32.85;99924.82;126744;1096;66655;-89
2021/12/01 13:28:47;;;;;;;2.77;1.90;;;;;;;14.48;32.85;99933.17;126523;1096;68316;-89
2021/12/01 13:34:38;;;;;;;3.07;1.80;;;;;;;14.48;32.82;99937.98;125992;1095;67768;-91
2021/12/01 13:40:41;;;;;;;3.05;1.95;;;;;;;14.46;32.83;99948.83;126613;1095;68157;-91
2021/12/01 13:46:32;;;;;;;4.40;1.63;;;;;;;14.46;32.70;99957.94;126260;1094;66687;-91
2021/12/01 13:52:51;;;;;;;2.75;1.65;;;;;;;14.45;32.78;99961.22;126657;1096;67770;-89
2021/12/01 13:58:50;;;;;;;2.50;1.80;;;;;;;14.44;32.88;99946.53;121479;1095;67859;-89
2021/12/01 14:04:35;;;;;;;2.27;1.80;;;;;;;14.45;32.99;99958.43;125885;1095;67891;-91
2021/12/01 14:10:27;;;;;;;2.47;1.90;;;;;;;14.43;32.84;99958.92;126443;1097;67730;-90
2021/12/01 14:16:33;;;;;;;3.30;1.73;;;;;;;14.42;32.94;99951.81;126598;1095;67849;-91
2021/12/01 14:22:29;;;;;;;2.47;1.57;;;;;;;14.41;33.07;99958.63;126652;1095;67750;-91
2021/12/01 14:28:38;;;;;;;3.13;1.90;;;;;;;14.41;33.02;99953.05;125745;1096;67875;-90
2021/12/01 14:34:49;;;;;;;2.20;1.67;;;;;;;14.39;32.97;99961.11;125022;1090;67891;-90
2021/12/01 14:40:57;;;;;;;3.73;1.90;;;;;;;14.39;33.04;99966.69;126386;1097;67762;-91
2021/12/01 14:47:20;;;;;;;3.17;1.87;;;;;;;14.37;32.91;99958.03;125284;1096;67807;-92
2021/12/01 14:50:36;;;;;;;3.47;2.00;;;;;;;14.37;32.92;99963.61;125584;1096;67914;-88
2021/12/01 14:56:17;;;;;;;3.10;2.10;;;;;;;14.37;33.06;99971.95;125685;1096;67776;-88
2021/12/01 15:02:15;;;;;;;3.23;2.40;;;;;;;14.36;33.24;99984.34;126354;1095;67868;-89
2021/12/01 15:11:33;;;;;;;4.53;2.80;;;;;;;14.35;33.23;99996.72;126532;1096;67683;-89
2021/12/01 15:17:30;;;;;;;4.80;2.90;;;;;;;14.33;33.23;99991.61;126428;1096;67857;-91
2021/12/01 15:23:29;;;;;;;5.23;2.50;;;;;;;14.33;33.34;99988.06;125601;1096;67778;-90
2021/12/01 15:29:23;;;;;;;5.43;2.80;;;;;;;14.32;33.39;100001.23;126340;1096;67822;-92
2021/12/01 15:38:13;;;;;;;6.30;3.47;;;;;;;14.33;33.45;100001.98;125583;1096;67936;-90
2021/12/01 15:44:06;;;;;;;4.40;3.10;;;;;;;14.32;33.74;100008.80;126138;1097;67856;-91
2021/12/01 15:53:03;;;;;;;5.30;3.30;;;;;;;14.31;33.63;100018.39;126157;1096;67794;-90
2021/12/01 15:59:01;;;;;;;6.03;3.37;;;;;;;14.30;33.72;100014.85;126304;1096;67853;-89
2021/12/01 16:05:00;;;;;;;5.50;3.97;;;;;;;14.30;33.69;100023.20;126149;1097;67914;-90
2021/12/01 16:16:37;;;;;;;4.90;3.40;;;;;;;14.30;33.80;100022.42;125237;1097;67861;-90
2021/12/01 16:22:34;;;;;;;5.40;4.10;;;;;;;14.28;33.78;100043.14;126184;1096;67772;-91
2021/12/01 16:32:09;;;;;;;6.50;3.73;;;;;;;14.28;33.77;100059.09;126486;1096;67872;-91
2021/12/01 16:35:18;;;;;;;7.00;4.10;;;;;;;14.28;33.99;100059.84;125890;1094;66502;-89
2021/12/01 16:38:27;;;;;;;7.47;4.20;;;;;;;14.27;34.04;100061.09;126600;1094;67747;-90
2021/12/01 16:44:30;;;;;;;7.37;4.50;;;;;;;14.27;34.02;100066.66;125892;1096;67884;-91
2021/12/01 16:50:18;;;;;;;9.47;5.10;;;;;;;14.28;34.11;100068.20;126332;1096;67769;-91
2021/12/01 16:53:32;;;;;;;8.33;5.43;;;;;;;14.28;33.91;100056.31;118247;1096;66986;-91
2021/12/01 16:59:38;;;;;;;8.03;5.23;;;;;;;14.28;34.21;100040.36;126447;1096;67670;-90
2021/12/01 17:05:29;;;;;;;7.87;5.47;;;;;;;14.27;34.18;100044.39;126769;1089;67880;-90
2021/12/01 17:11:21;;;;;;;10.77;5.70;;;;;;;14.28;34.22;100045.17;125930;1095;67849;-90
2021/12/01 17:14:27;;;;;;;8.75;5.55;;;;;;;14.28;34.29;100045.17;126288;1096;67850;-91
2021/12/01 17:20:32;;;;;;;7.67;5.47;;;;;;;14.26;34.34;100048.41;126348;1094;67069;-91
2021/12/01 17:24:02;;;;;;;9.20;5.53;;;;;;;14.27;34.35;100049.95;121326;1096;67792;-91
2021/12/01 17:29:56;;;;;;;7.13;5.10;;;;;;;14.27;34.31;100065.91;127657;1095;67645;-90
2021/12/01 17:36:00;;;;;;;8.30;5.37;;;;;;;14.25;34.54;100069.14;126680;1096;67944;-89
2021/12/01 17:45:10;;;;;;;8.93;5.73;;;;;;;14.25;34.50;100055.22;126687;1094;67873;-89
2021/12/01 17:51:01;;;;;;;7.77;5.57;;;;;;;14.26;34.61;100042.84;126127;1096;67744;-90
2021/12/01 17:57:06;;;;;;;8.53;5.53;;;;;;;14.25;34.55;100060.79;126251;1096;67805;-90
2021/12/01 18:02:54;;;;;;;9.80;5.63;;;;;;;14.25;34.56;100076.73;126545;1096;67907;-90
2021/12/01 18:08:45;;;;;;;8.93;5.77;;;;;;;14.23;34.51;100074.41;126652;1095;67903;-89
2021/12/01 18:14:39;;;;;;;9.70;5.93;;;;;;;14.24;34.63;100072.41;125613;1096;67859;-91
2021/12/01 18:20:24;;;;;;;8.73;6.30;;;;;;;14.23;34.72;100087.57;126308;1096;67893;-90
2021/12/01 18:26:12;;;;;;;8.55;6.10;;;;;;;14.22;34.61;100092.35;126547;1095;66380;-90
2021/12/01 18:32:00;;;;;;;12.90;6.17;;;;;;;14.21;34.65;100090.81;125933;1096;67862;-90
2021/12/01 18:37:50;;;;;;;8.37;5.60;;;;;;;14.21;34.76;100085.24;126552;1095;66832;-88
2021/12/01 18:43:38;;;;;;;8.43;5.90;;;;;;;14.21;34.78;100090.81;126136;1097;67631;-91
2021/12/01 18:46:47;;;;;;;8.57;5.73;;;;;;;14.20;34.76;100077.38;126423;1096;67774;-89
2021/12/01 18:52:53;;;;;;;7.73;5.40;;;;;;;14.20;34.84;100071.81;126486;1096;67990;-91
2021/12/01 18:56:02;;;;;;;11.00;5.60;;;;;;;14.19;34.83;100076.63;125734;1096;67776;-90
2021/12/01 18:59:11;;;;;;;7.50;5.33;;;;;;;14.19;34.86;100098.89;126605;1097;67858;-91
2021/12/01 19:05:14;;;;;;;8.63;5.50;;;;;;;14.18;34.90;100091.78;126482;1094;67955;-91
2021/12/01 19:11:05;;;;;;;7.63;5.67;;;;;;;14.18;34.89;100080.64;127086;1097;67743;-91
2021/12/01 19:17:00;;;;;;;8.20;5.70;;;;;;;14.17;34.79;100081.89;126502;1095;67720;-91
2021/12/01 19:20:09;;;;;;;14.77;5.43;;;;;;;14.19;34.92;100084.19;126644;1095;66385;-90
2021/12/01 19:26:12;;;;;;;9.17;5.30;;;;;;;14.17;34.74;100112.50;126570;1095;67824;-88
2021/12/01 19:32:00;;;;;;;7.63;5.60;;;;;;;14.17;34.81;100100.59;126095;1096;67811;-91
2021/12/01 19:37:48;;;;;;;7.00;4.75;;;;;;;14.17;34.97;100079.11;125542;1097;67912;-90
2021/12/01 19:43:36;;;;;;;6.83;4.80;;;;;;;14.15;34.88;100073.24;126559;1096;67856;-91
2021/12/01 19:49:35;;;;;;;6.33;4.30;;;;;;;14.15;34.76;100078.02;126431;1096;67383;-89
2021/12/01 19:55:38;;;;;;;8.30;4.67;;;;;;;14.14;34.76;100071.70;125941;1096;67313;-90
2021/12/01 20:01:29;;;;;;;6.67;4.63;;;;;;;14.14;34.94;100107.88;126552;1096;67850;-89
2021/12/01 20:04:38;;;;;;;8.40;4.57;;;;;;;14.13;35.00;100095.20;126546;1096;66968;-90
2021/12/01 20:07:47;;;;;;;7.00;4.40;;;;;;;14.13;34.83;100072.94;126594;1096;68073;-90
2021/12/01 20:13:50;;;;;;;6.33;4.43;;;;;;;14.14;34.85;100102.31;126532;1095;67814;-91
2021/12/01 20:19:41;;;;;;;8.53;4.90;;;;;;;14.13;34.94;100103.55;126406;1096;67748;-91
2021/12/01 20:25:35;;;;;;;6.77;4.93;;;;;;;14.11;34.71;100080.98;126505;1096;68170;-89
2021/12/01 20:31:23;;;;;;;7.33;4.53;;;;;;;14.11;34.81;100084.53;125804;1096;67829;-91
2021/12/01 20:37:22;;;;;;;9.83;5.00;;;;;;;14.11;34.70;100080.98;126390;1096;67771;-91
2021/12/01 20:43:19;;;;;;;8.83;5.00;;;;;;;14.11;34.79;100092.13;125780;1096;67897;-91
2021/12/01 21:01:40;;;;;;;7.30;5.35;;;;;;;14.07;34.81;100086.73;126464;1095;67801;-90
2021/12/01 21:07:47;;;;;;;8.50;5.27;;;;;;;14.07;34.84;100075.61;126388;1096;67852;-90
2021/12/01 21:13:37;;;;;;;7.43;4.87;;;;;;;14.07;34.75;100080.39;126434;1096;67821;-91
2021/12/01 21:19:30;;;;;;;9.20;4.70;;;;;;;14.06;34.96;100053.80;126364;1096;67800;-91
2021/12/01 21:25:21;;;;;;;6.27;4.80;;;;;;;14.05;34.83;100044.70;126629;1096;67855;-89
2021/12/01 21:31:11;;;;;;;7.17;4.80;;;;;;;14.05;34.89;100060.61;126551;1095;67949;-91
2021/12/01 21:37:00;;;;;;;8.60;5.60;;;;;;;14.04;34.72;100072.98;126490;1095;67811;-92
2021/12/01 21:42:50;;;;;;;8.23;5.10;;;;;;;14.04;34.72;100064.63;126458;1096;67772;31
2021/12/01 21:51:57;;;;;;;7.60;5.03;;;;;;;14.01;34.79;100055.23;125497;1097;67853;-91
2021/12/01 21:57:57;;;;;;;7.00;4.63;;;;;;;14.00;34.80;100050.91;125547;1096;67964;-90
2021/12/01 22:03:44;;;;;;;8.00;5.10;;;;;;;14.00;34.83;100053.69;126208;1097;66536;-90
2021/12/01 22:12:58;;;;;;;8.03;4.70;;;;;;;13.98;34.75;100047.82;126462;1096;67737;-89
2021/12/01 22:19:01;;;;;;;7.27;5.10;;;;;;;13.98;34.67;100047.82;126542;1096;65522;-90
2021/12/01 22:24:52;;;;;;;6.17;4.43;;;;;;;13.96;34.71;100028.80;126505;1096;68830;-89
2021/12/01 22:30:52;;;;;;;6.83;4.80;;;;;;;13.97;34.66;100016.44;126202;1097;67853;-91
2021/12/01 22:36:38;;;;;;;5.97;4.43;;;;;;;13.96;34.64;99987.07;125614;1096;67866;31
2021/12/01 22:45:48;;;;;;;7.37;4.30;;;;;;;13.95;34.75;99998.69;126399;1097;67747;-91
2021/12/01 22:48:57;;;;;;;5.57;4.17;;;;;;;13.95;34.60;99988.34;126571;1095;67832;-89
2021/12/01 22:54:53;;;;;;;6.40;4.40;;;;;;;13.94;34.67;100006.27;126287;1097;67781;-91
2021/12/01 23:01:04;;;;;;;7.27;4.43;;;;;;;13.94;34.74;99994.36;126451;1096;67857;-91
2021/12/01 23:06:52;;;;;;;7.97;4.50;;;;;;;13.95;34.70;100005.03;126345;1096;67744;-91
2021/12/01 23:15:58;;;;;;;6.75;3.83;;;;;;;13.93;34.46;99988.05;126234;1090;67851;-90
2021/12/01 23:19:07;;;;;;;6.57;4.50;;;;;;;13.93;34.51;99995.60;126722;1096;67797;-89
2021/12/01 23:31:23;;;;;;;7.13;3.93;;;;;;;13.93;34.69;100001.95;126371;1097;67796;-89
2021/12/01 23:37:15;;;;;;;5.45;3.75;;;;;;;13.93;34.77;99985.26;126662;1090;68082;-90
2021/12/01 23:43:08;;;;;;;7.60;3.70;;;;;;;13.94;34.67;99994.36;126824;1095;67805;-90
2021/12/01 23:55:04;;;;;;;8.27;4.20;;;;;;;13.93;34.49;99976.13;126595;1095;67868;-91
